Terminal Aerodrome Forecast
Issued by NWS

Home | Current Version | Previous Version | Text Only | Print | Product List | Glossary On
Versions: 1 2 3 4 5 6 7 8 9 10 11 12 13 14 15 16 17 18 19 20 21 22 23 24 25 26 27 28 29
000
FTUS43 KDDC 221131
TAFGCK
TAF
KGCK 221131Z 2212/2312 31013G22KT P6SM BKN070
     FM221600 32022G29KT P6SM SCT060 SCT100
     FM230000 31010KT P6SM FEW100=

USA.gov is the U.S. government's official web portal to all federal, state and local government web resources and services.